arxmliv
arxmliv build tool
 
KWARC group
LaTeXML
About
   
 

Detailed info

Back to Homepage

List of missing_macros

No. Date Filename num_warningnum_errornum_xmargok_xmargnum_xmathok_xmathMissing macros
47801 2013-04-09 10:58:42 /1004/1004.4927 050000[\kword, \abst, \inst, \recdate, \acknowledgements].
47802 2013-04-09 10:58:37 /1004/1004.4908 2430000[\theoremheaderfont, \theorembodyfont, \theoremseparator].
47803 2013-04-09 10:58:32 /1004/1004.4883 5720000[\columncolor, \rowcolor].
47804 2013-04-09 10:58:29 /1004/1004.4863 10540000[\subjclassyear, \examplename, \theequation].
47805 2013-04-09 10:58:29 /1004/1004.4912 3310000[\tr].
47806 2013-04-09 10:58:22 /1004/1004.4902 1010000[\cancel].
47807 2013-04-09 10:58:10 /1004/1004.4886 1930000[\bl, \tableau, \geometry].
47808 2013-04-09 10:58:09 /1004/1004.4900 1640000[Align, \xymatrix, \ar]; 1 missing file[xy.sty].
47809 2013-04-09 10:57:39 /1004/1004.4880 10430000[{keywords}, \appendices, {IEEEproof}]; 1 missing file[IEEEtran.cls].
47810 2013-04-09 10:57:34 /1004/1004.4889 1510000[\affiliation].
47811 2013-04-09 10:57:32 /1004/1004.4906 620000[\nicefrac, {comment}].
47812 2013-04-09 10:57:08 /1004/1004.4896 1210000[\theappendix].
47813 2013-04-09 10:56:38 /1004/1004.4894 4210000[\includegraphics, \ShortTitle, \email, \lesssim, \FullConference, \speaker]; 1 missing file[PoS.cls].
47814 2013-04-09 10:56:23 /1004/1004.4864 2010000[\columncolor].
47815 2013-04-09 10:56:06 /1004/1004.4877 2910000[\citen].
47816 2013-04-09 10:55:52 /1004/1004.4839 7320000[\yng, \young].
47817 2013-04-09 10:55:50 /1004/1004.4843 1980000[\eqref, \mathbb, \mod, \keywords, \numberwithin, \email, \subjclass, \boldsymbol].
47818 2013-04-09 10:55:50 /1004/1004.4881 13100000[\citeauthoryear, \institute, \runningtitle, {opening}, {article}, {acks}, \keywords, \sep, \runningauthor]; 2 missing files[spr-sola-addons.sty, SolarPhysics.cls].
47819 2013-04-09 10:55:39 /1004/1004.4884 210000[\ead].
47820 2013-04-09 10:55:27 /1004/1004.4845 6420000[\pdfpageheight, \pdfpagewidth].
47821 2013-04-09 10:55:27 /1004/1004.4866 44290000[\accentset, \underaccent].
47822 2013-04-09 10:55:23 /1004/1004.4869 160000[\email, \titlerunning, \offprints, \institute, \authorrunning, {acknowledgements}]; 1 missing file[pazh1.cls].
47823 2013-04-09 10:55:06 /1004/1004.4870 220000[\layoutstyle, \classification].
47824 2013-04-09 10:54:55 /1004/1004.4859 530000[\theappendix].
47825 2013-04-09 10:54:22 /1004/1004.4844 040000[\extrasenglish, \dateenglish, \captionsenglish]; 1 missing file[esint.sty].
47826 2013-04-09 10:54:15 /1004/1004.4835 17140000[{xy}, Align, \xymatrix, \ar]; 1 missing file[xy.sty].
47827 2013-04-09 10:53:57 /1004/1004.4847 0110000[\affil, \plotone, \citep, \epsscale, \citet, \acknowledgements]; 1 missing file[asp2006.sty].
47828 2013-04-09 10:53:49 /1004/1004.4822 5010000[\mathds].
47829 2013-04-09 10:53:22 /1004/1004.4836 740000[\pagespan, \inst, {acknowledgement}, \keywords].
47830 2013-04-09 10:52:59 /1004/1004.4824 010000[\cortext].
47831 2013-04-09 10:52:55 /1004/1004.4826 320000[\authorblockA, \appendices]; 1 missing file[IEEEtran.cls].
47832 2013-04-09 10:52:38 /1004/1004.4801 6610000[\inst].
47833 2013-04-09 10:52:20 /1004/1004.4817 920000[\PACS]; 1 missing file[size11.clo.sty].
47834 2013-04-09 10:52:19 /1004/1004.4777 100540000[\calS, \frakT, \lsuper, \calD, \frakH, \defiff, {exa}, \calK, \address, \subjclass, \relsize, {lem}, {defi}, {cor}, \abs, {oprob}, \frakE, \lmcsheading, \calP, \itm, {Proof}, \keywords, \calT, \bigset, \calG, \calC, \cupdot, \frakU, \frakB, \prefixtext,
47835 2013-04-09 10:52:19 /1004/1004.4815 2030000[{IEEEproof}]; 1 missing file[IEEEtran.cls].
47836 2013-04-09 10:52:17 /1004/1004.4798 4330000[{comment}].
47837 2013-04-09 10:52:13 /1004/1004.4759 1520000[\@date]; 1 missing file[snapshot.sty].
47838 2013-04-09 10:51:34 /1004/1004.4755 2530000[\node, \arrow, {diagram}].
47839 2013-04-09 10:51:24 /1004/1004.4791 23140000[{acknowledgments}, \affil, \copyrightyear, \issuenumber, \contributor, {materials}, {article}, \issuedate, \keywords, \volume, \dropcap, \abbreviations, \url]; 2 missing files[pnastwoF.sty, pnastwo.cls].
47840 2013-04-09 10:51:15 /1004/1004.4784 1330000[\xout].
47841 2013-04-09 10:51:11 /1004/1004.4789 010000[\psfrag].
47842 2013-04-09 10:51:00 /1004/1004.4779 070000[\@open@row, Align, \@close@row, \xymatrix, \ar].
47843 2013-04-09 10:50:50 /1004/1004.4786 020000[\fnref, \cortext].
47844 2013-04-09 10:50:19 /1004/1004.4766 030000[\subfloat, \cortext]; 1 missing file[aas_macros.sty].
47845 2013-04-09 10:50:19 /1004/1004.4776 6220000[\PACS]; 1 missing file[size11.clo.sty].
47846 2013-04-09 10:50:03 /1004/1004.4717 8810000[\theappendix].
47847 2013-04-09 10:49:58 /1004/1004.4762 1020000[\slashed]; 1 missing file[axodraw4j.sty].
47848 2013-04-09 10:49:48 /1004/1004.4775 020000[\PACS]; 1 missing file[size11.clo.sty].
47849 2013-04-09 10:49:33 /1004/1004.4763 140000[Align, \xymatrix, \ar]; 1 missing file[xy.sty].
47850 2013-04-09 10:49:32 /1004/1004.4764 220000[\OliveGreen]; 1 missing file[colordvi.sty].
47851 2013-04-09 10:49:19 /1004/1004.4752 630000[{proof}, \keywords, \contact]; 1 missing file[icm2010.cls].
47852 2013-04-09 10:49:18 /1004/1004.4753 2620000[\psfrag]; 1 missing file[xy.sty].
47853 2013-04-09 10:49:16 /1004/1004.4744 830000[\includegraphics, \pdfadjustspacing, \scalebox].
47854 2013-04-09 10:49:11 /1004/1004.4746 430000[\pacs, \inst, \institute]; 1 missing file[epl2.cls].
47855 2013-04-09 10:48:50 /1004/1004.4724 1640000[Align, \xymatrix, \ar]; 1 missing file[xy.sty].
47856 2013-04-09 10:48:48 /1004/1004.4733 030000[\extrasenglish, \dateenglish, \captionsenglish].
47857 2013-04-09 10:48:46 /1004/1004.4739 2310000[\mathds].
47858 2013-04-09 10:48:38 /1004/1004.4723 1970000[\extrasenglish, Align, \xymatrix, \geometry, \ar, \dateenglish, \captionsenglish].
47859 2013-04-09 10:48:31 /1004/1004.4712 2210000[\keywords].
47860 2013-04-09 10:47:56 /1004/1004.4709 51250000[\IEEEauthorblockA, \IEEEauthorblockN, {enumerate*}, \@slowromancap, {itemize*}, {proof}]; 2 missing files[IEEEtran.cls, mdwlist.sty].
47861 2013-04-09 10:47:42 /1004/1004.4730 1140000[\kword, \abst, \eqref, \inst, \lesssim]; 1 missing file[jpsj3.cls].
47862 2013-04-09 10:47:30 /1004/1004.4714 040000[\extrasenglish, \dateenglish, \captionsenglish]; 1 missing file[esint.sty].
47863 2013-04-09 10:47:29 /1004/1004.4706 3140000[\extrasenglish, \geometry, \dateenglish, \captionsenglish].
47864 2013-04-09 10:47:28 /1004/1004.4716 040000[\extrasenglish, \unit, \dateenglish, \captionsenglish].
47865 2013-04-09 10:47:25 /1004/1004.4702 910000[{comment}].
47866 2013-04-09 10:47:19 /1004/1004.4715 070000[\sodauthor, \rauthor, \sodtitle, \dates, \lat, \PACS, \rtitle].
47867 2013-04-09 10:47:16 /1004/1004.4671 15270000[\subfloat].
47868 2013-04-09 10:47:13 /1004/1004.4707 5100000[\kword, \abst, Align, \inst, \recdate, {split}, \mib, \citen]; 1 missing file[jpsj3.cls].
47869 2013-04-09 10:47:10 /1004/1004.4699 10010000[\theappendix].
47870 2013-04-09 10:47:09 /1004/1004.4718 950000[\affaddr, \numberofauthors, \titlenote, \alignauthor, \keywords].
47871 2013-04-09 10:46:50 /1004/1004.4690 1630000[{IEEEkeywords}, \IEEEmembership, {IEEEproof}]; 1 missing file[IEEEtran.cls].
47872 2013-04-09 10:46:42 /1004/1004.4655 6130000[{comment}].
47873 2013-04-09 10:46:33 /1004/1004.4692 620000[\apprge, \apprle].
47874 2013-04-09 10:46:31 /1004/1004.4697 910000[\normalem].
47875 2013-04-09 10:46:21 /1004/1004.4673 32170000[\pgfseteorule, \pgfsetdash, \pgfpathcurveto, \pgfsetlinewidth, \pgfclosepath, {pgfpicture}, \pgftext, \pgfsetmiterlimit, \pgfpathlineto, \pgftransformcm, \pgfpoint, {pgfscope}, \pgfsetrectcap, \pgfusepath, \pgfsetmiterjoin, \pgfpathmoveto]; 1 missing fil
47876 2013-04-09 10:45:55 /1004/1004.4700 0180000[\apj, \accepted, \Month, \publonline, \sun, \pasp, \titlerunning, \authorrunning, \received, \Issue, \aj, \Yearsubmission, \institute, \Yearpublication, \Volume, \apjs, \Pagespan, \acknowledgements].
47877 2013-04-09 10:45:47 /1004/1004.4686 2250000[{IEEEkeywords}, \IEEEpeerreviewmaketitle, \ifCLASSINFOpdf]; 1 missing file[IEEEtran.cls].
47878 2013-04-09 10:45:37 /1004/1004.4674 6020000[\normalem]; 1 missing file[eso-pic.sty].
47879 2013-04-09 10:45:29 /1004/1004.4676 5200000[\pgfseteorule, \pgfclosepath, {pgfpicture}, \pgfpoint, {pgfscope}, \pgfusepath, \pgfsetfillopacity, \pgfpathmoveto, \pgfsetlinewidth, \pgfpathcurveto, \pgfsetdash, \pgftext, \pgfsetmiterlimit, \pgftransformcm, \pgfpathlineto, \pgfsetrectcap, \pgfsetmiter
47880 2013-04-09 10:45:21 /1004/1004.4685 040000[\fnref, Align, \cortext, \fntext].
47881 2013-04-09 10:45:04 /1004/1004.4688 140000[\fnref, Align, \cortext, \fntext].
47882 2013-04-09 10:44:50 /1004/1004.4654 830000[Align, \geometry].
47883 2013-04-09 10:44:45 /1004/1004.4656 28820000[\cortext]; 1 missing file[thanks.sty].
47884 2013-04-09 10:44:37 /1004/1004.4663 130000[{keywords}, \IEEEaftertitletext, {proof}]; 1 missing file[IEEEtran.cls].
47885 2013-04-09 10:44:18 /1004/1004.4668 1880000[{comment}].
47886 2013-04-09 10:44:04 /1004/1004.4617 2140000[\theappendix, \longtabL].
47887 2013-04-09 10:43:29 /1004/1004.4640 1830000[\theappendix, \pcite]; 1 missing file[mnras_cite.sty].
47888 2013-04-09 10:43:06 /1004/1004.4652 190000[\Book, \pacs, \inst, \institute, \acknowledgments, \Publ, \Name, \Year, \REVIEW]; 1 missing file[epl2.cls].
47889 2013-04-09 10:42:56 /1004/1004.4641 4210000[\lElseIf, \KwOut, \Else, \While, \For, \If, \KwIn, \Return, \lElse, \lIf, {algorithm2e}, \DontPrintSemicolon].
47890 2013-04-09 10:42:54 /1004/1004.4657 2780000[{addendum}, {affiliations}]; 1 missing file[naturewithfigure.cls].
47891 2013-04-09 10:42:14 /1004/1004.4607 4710000[\young].
47892 2013-04-09 10:42:06 /1004/1004.4633 1410000[\subfloat].
47893 2013-04-09 10:42:03 /1004/1004.4643 030000[\affil]; 2 missing files[authblk.sty, marvosym.sty].
47894 2013-04-09 10:41:56 /1004/1004.4646 8290000[\thechapter, \lesssim, \citep, \@currentID, \psfig, \citet, \tbl]; 2 missing files[ws-book975x65edit.cls, ws-book-har.sty].
47895 2013-04-09 10:41:37 /1004/1004.4404 257110000[Align, \xymatrix, \ar]; 2 missing files[marginnote.sty, xy.sty].
47896 2013-04-09 10:41:19 /1004/1004.4619 9110000[\mathds].
47897 2013-04-09 10:40:48 /1004/1004.4615 230000[\ead]; 2 missing files[hypcap.sty, microtype.sty].
47898 2013-04-09 10:40:46 /1004/1004.4625 1810000[\onllongtab].
47899 2013-04-09 10:40:19 /1004/1004.4572 95130000[Align, \xymatrix, \ar]; 10 missing files[xycurve.sty, xymatrix.sty, xyline.sty, xyarrow.sty, xycmtip.sty, xycolor.sty, xyrotate.sty, xy.sty, xyframe.sty, xygraph.sty].
47900 2013-04-09 10:39:49 /1004/1004.4609 460000[\newproof, {proof}]; 1 missing file[newproof.sty].
47901 2013-04-09 10:39:37 /1004/1004.4578 10590000[Align, \xyoption, \xymatrix, \ar]; 1 missing file[xy.sty].
47902 2013-04-09 10:39:24 /1004/1004.4591 4090000[\citeauthoryear, {keywords}, \citep, \doi, \jvol, \issn, \jyear, \jnum, \issnp]; 1 missing file[gGAF2e.cls].
47903 2013-04-09 10:39:12 /1004/1004.4564 18890000[\hair, \includegraphics, \pinlabel, \endlabellist, \labellist]; 2 missing files[pinlabel.sty, microtype.sty].
47904 2013-04-09 10:38:59 /1004/1004.4277 7420000[{keywords}, \appendices]; 1 missing file[IEEEtran.cls].
47905 2013-04-09 10:38:36 /1004/1004.4577 210000[\normalem].
47906 2013-04-09 10:38:21 /1004/1004.4565 4910000[\FloatBarrier].
47907 2013-04-09 10:38:17 /1004/1004.4559 520000[\affil]; 1 missing file[authblk.sty].
47908 2013-04-09 10:38:03 /1004/1004.4550 1340000[Align, \xymatrix, \ar]; 1 missing file[xy.sty].
47909 2013-04-09 10:37:55 /1004/1004.4530 8920000[{keywords}, \IEEEmembership]; 1 missing file[IEEEtran.cls].
47910 2013-04-09 10:37:47 /1004/1004.4548 5100000[\affil, \captiontitlefont, \captionnamefont, \midrule, \captiondelim, \toprule, \bottomrule]; 3 missing files[authblk.sty, abstract.sty, ccaption.sty].
47911 2013-04-09 10:37:35 /1004/1004.4568 3190000[\catchline, \psfig, \tbl, \refcite]; 1 missing file[ws.sty].
47912 2013-04-09 10:37:25 /1004/1004.4540 1560000[\UseAllTwocells, Align, \xymatrix, \ar, \SilentMatrices]; 1 missing file[xy.sty].
47913 2013-04-09 10:37:15 /1004/1004.4555 210000[\ead].
47914 2013-04-09 10:37:09 /1004/1004.4541 050000[\fnref, Align, \cortext, \fntext, \biboptions].
47915 2013-04-09 10:37:07 /1004/1004.4539 070000[\affil, \subfloat, \midrule, \toprule, \bottomrule]; 1 missing file[authblk.sty].
47916 2013-04-09 10:36:56 /1004/1004.4546 910000[\citeauthoryear].
47917 2013-04-09 10:36:49 /1004/1004.4521 2630000[Align, \xymatrix, \ar].
47918 2013-04-09 10:36:17 /1004/1004.4532 040000[{theacknowledgments}, \layoutstyle, \classification]; 1 missing file[{aipcheck}].
47919 2013-04-09 10:36:12 /1004/1004.4520 450000[\IEEEauthorblockA, \IEEEauthorblockN, \ifCLASSINFOpdf]; 1 missing file[IEEEtran.cls].
47920 2013-04-09 10:35:59 /1004/1004.4509 1540000[\subfloat]; 1 missing file[threeparttable.sty].
47921 2013-04-09 10:35:55 /1004/1004.4512 23140000[Align, \xyoption, \xymatrix, \ar]; 10 missing files[xycurve.sty, xymatrix.sty, xyline.sty, xyarrow.sty, xycmtip.sty, xycolor.sty, xyrotate.sty, xy.sty, xyframe.sty, xygraph.sty].
47922 2013-04-09 10:35:38 /1004/1004.4516 2020000[\braket, \ket].
47923 2013-04-09 10:35:18 /1004/1004.4485 4770000[\theoremheaderfont, \theorembodyfont, \theoremstyle, \theoremsymbol, \theoremseparator, \theoremnumbering, \varoint].
47924 2013-04-09 10:35:05 /1004/1004.4492 270000[\IEEEmembership, \appendices, {IEEEproof}]; 1 missing file[IEEEtran.cls].
47925 2013-04-09 10:35:03 /1004/1004.4427 124110000[\extraline, Align, \classno, \email, \affiliationone, \xymatrix, {proof}, \ar]; 1 missing file[xy.sty].
47926 2013-04-09 10:34:52 /1004/1004.4490 3260000[\IEEEauthorblockA, \IEEEauthorblockN, \IEEEoverridecommandlockouts]; 4 missing files[multibib.sty, stfloats.sty, mhchem.sty, IEEEtran.cls].
47927 2013-04-09 10:34:46 /1004/1004.4506 610000[\theappendix].
47928 2013-04-09 10:34:24 /1004/1004.4423 2940000[Align, \xymatrix, \ar]; 1 missing file[xy.sty].
47929 2013-04-09 10:34:24 /1004/1004.4491 050000[\xyoption, \@end@institute, \xleftrightarrow]; 2 missing files[mathtools.sty, xy.sty].
47930 2013-04-09 10:34:04 /1004/1004.4489 010000[\pdfinfo].
47931 2013-04-09 10:33:52 /1004/1004.4474 1630000[{sidewaysfigure*}].
47932 2013-04-09 10:33:42 /1004/1004.4475 2010000[Align].
47933 2013-04-09 10:33:28 /1004/1004.4439 510000[\theappendix].
47934 2013-04-09 10:33:22 /1004/1004.4443 7440000[\onelinecaptionsfalse, \setcaptionmargin, \captionstyle]; 1 missing file[hyphenat.sty].
47935 2013-04-09 10:32:55 /1004/1004.4411 4590000[\theproposition, \setlist, \sslash, \thedefinition]; 1 missing file[xy.sty].
47936 2013-04-09 10:32:48 /1004/1004.4468 910000[\tablebib].
47937 2013-04-09 10:32:13 /1004/1004.4408 7940000[\captionwidth].
47938 2013-04-09 10:32:12 /1004/1004.4437 630000[\IEEEauthorblockA, \IEEEauthorblockN, \IEEEpeerreviewmaketitle]; 1 missing file[IEEEtran.cls].
47939 2013-04-09 10:32:04 /1004/1004.4442 9420000[\al@ATel2107,ATel2120, \al@ATel2108,ATel2120].
47940 2013-04-09 10:31:54 /1004/1004.4441 29610000[\kword, \abst, \inst, {multline}]; 1 missing file[jpsj3.cls].
47941 2013-04-09 10:31:41 /1004/1004.4432 7540000[\QED, \appendices]; 1 missing file[IEEEtran.cls].
47942 2013-04-09 10:31:25 /1004/1004.4412 3340000[Align, \xymatrix, \ar]; 1 missing file[xy.sty].
47943 2013-04-09 10:31:07 /1004/1004.4431 1110000[\IEEEauthorblockA, \IEEEauthorblockN, \ifCLASSINFOpdf]; 1 missing file[IEEEtran.cls].
47944 2013-04-09 10:30:54 /1004/1004.4430 350000[\includegraphics, \ShortTitle, \email, \FullConference, \speaker]; 1 missing file[PoS.cls].
47945 2013-04-09 10:30:46 /1004/1004.4398 3720000[{IEEEkeywords}, {proof}]; 1 missing file[IEEEtran.cls].
47946 2013-04-09 10:30:28 /1004/1004.4417 040000[Align, \xymatrix, \ar]; 1 missing file[xy.sty].
47947 2013-04-09 10:30:19 /1004/1004.4420 040000[{algorithm}, \ForEach, \tcp].
47948 2013-04-09 10:30:12 /1004/1004.4402 340000[Align, \cortext, \captionstyle]; 1 missing file[hypcap.sty].
47949 2013-04-09 10:29:56 /1004/1004.4406 750000[\includegraphics, \kword, \abst, \inst, \recdate]; 1 missing file[jpsj3.cls].
47950 2013-04-09 10:29:51 /1004/1004.4405 120000[\ead].
47951 2013-04-09 10:29:46 /1004/1004.4399 8690000[Align, \sepnum, \xymatrix, \ar]; 5 missing files[fancyvrb.sty, slashbox.sty, hypbmsec.sty, xy.sty, sepnum.sty].
47952 2013-04-09 10:29:20 /1004/1004.4401 720000[\psfig]; 1 missing file[pinlabel.sty].
47953 2013-04-09 10:29:01 /1004/1004.4379 5250000[\sssize, Align, \xymatrix, \ar]; 1 missing file[colordvi.sty].
47954 2013-04-09 10:28:41 /1004/1004.4346 040000[\extrasenglish, {comment}, \dateenglish, \captionsenglish].
47955 2013-04-09 10:27:52 /1004/1004.4386 240000[\nolinenumbers, \subfloat, {boxedminipage}]; 1 missing file[boxedminipage.sty].
47956 2013-04-09 10:27:43 /1004/1004.4385 050000[\extrasenglish, \dateenglish, \captionsenglish]; 2 missing files[hypcap.sty, ifdraft.sty].
47957 2013-04-09 10:27:34 /1004/1004.4373 820000[\IEEEPARstart, \subfloat]; 1 missing file[IEEEtran.cls].
47958 2013-04-09 10:27:04 /1004/1004.4377 040000[\extrasenglish, \dateenglish, \captionsenglish]; 1 missing file[esint.sty].
47959 2013-04-09 10:27:02 /1004/1004.4363 1920000[\htmladdnormallink].
47960 2013-04-09 10:26:59 /1004/1004.4344 810000[\sq].
47961 2013-04-09 10:26:58 /1004/1004.4347 5430000[\rrbracket, \llbracket]; 1 missing file[astats.sty].
47962 2013-04-09 10:26:55 /1004/1004.4375 020000[\PACS]; 1 missing file[size11.clo.sty].
47963 2013-04-09 10:26:33 /1004/1004.4343 240000[Align, \xymatrix, \ar]; 1 missing file[xy.sty].
47964 2013-04-09 10:26:12 /1004/1004.4315 6740000[Align, \xymatrix, \ar]; 1 missing file[xy.sty].
47965 2013-04-09 10:26:04 /1004/1004.4320 7030000[{pf}, \newproof]; 1 missing file[newproof.sty].
47966 2013-04-09 10:25:49 /1004/1004.4339 28140000[Align, {xy}, \xymatrix, \ar]; 10 missing files[xycurve.sty, xymatrix.sty, xyline.sty, xyarrow.sty, xycmtip.sty, xycolor.sty, xyrotate.sty, xyframe.sty, microtype.sty, xygraph.sty].
47967 2013-04-09 10:25:40 /1004/1004.4338 18190000[\SelectTips, \xygraph]; 1 missing file[xy.sty].
47968 2013-04-09 10:25:26 /1004/1004.4329 7720000[\doi]; 1 missing file[jfaa2e.sty].
47969 2013-04-09 10:25:25 /1004/1004.4336 210000[\citeauthoryear].
47970 2013-04-09 10:25:09 /1004/1004.4341 030000[\address, \abstracts]; 1 missing file[14lomcon.sty].
47971 2013-04-09 10:25:03 /1004/1004.4326 140000[\IEEEauthorblockA, \IEEEauthorblockN, \IEEEoverridecommandlockouts]; 2 missing files[hanging.sty, IEEEtran.cls].
47972 2013-04-09 10:25:01 /1004/1004.4288 1650000[Align, \color, \xymatrix, \ar]; 1 missing file[xy.sty].
47973 2013-04-09 10:24:57 /1004/1004.4324 040000[\extrasenglish, \dateenglish, \captionsenglish]; 1 missing file[topcapt.sty].
47974 2013-04-09 10:24:25 /1004/1004.4308 1830000[{IEEEkeywords}, \IEEEpeerreviewmaketitle, \IEEEmembership]; 1 missing file[IEEEtran.cls].
47975 2013-04-09 10:24:18 /1004/1004.4316 1810000[\theappendix].
47976 2013-04-09 10:24:10 /1004/1004.4312 0160000[\inst, \accepted, \Month, \publonline, \email, \titlerunning, \fnmsep, \authorrunning, \received, \Issue, \Yearsubmission, \institute, \Yearpublication, \Volume, \Pagespan, \acknowledgements].
47977 2013-04-09 10:24:10 /1004/1004.4318 430000[\textlangle, \textrangle, \@slowromancap].
47978 2013-04-09 10:24:08 /1004/1004.4299 520000[\authorblockN, \authorblockA]; 1 missing file[IEEEtran.cls].
47979 2013-04-09 10:24:00 /1004/1004.4290 46370000[\nicefrac, \vcentcolon, \neqp]; 2 missing files[mathtools.sty, microtype.sty].
47980 2013-04-09 10:23:53 /1004/1004.4301 1410000[\cortext].
47981 2013-04-09 10:23:19 /1004/1004.4260 14130000[Align, \xymatrix, \wideparen, \ar]; 9 missing files[xycurve.sty, xymatrix.sty, xyline.sty, xyarrow.sty, xycmtip.sty, xycolor.sty, xyrotate.sty, xyframe.sty, xygraph.sty].
47982 2013-04-09 10:23:07 /1004/1004.4289 160000[\supscr, \linkable, \affiliation, \acknowledgments, \citen, \keywords]; 1 missing file[spiejour.cls].
47983 2013-04-09 10:22:55 /1004/1004.4278 7130000[\bcontraction, \mathinner]; 1 missing file[simplewick.sty].
47984 2013-04-09 10:22:41 /1004/1004.4296 2140000[\conferenceinfo, \affaddr, \numberofauthors, \terms, \alignauthor, \keywords, \crdata, \CopyrightYear, \email, \category]; 2 missing files[ctable.sty, slashbox.sty].
47985 2013-04-09 10:22:30 /1004/1004.4297 940000[{keywords}, \IEEEpeerreviewmaketitle, \appendices, {proof}]; 1 missing file[IEEEtran.cls].
47986 2013-04-09 10:21:59 /1004/1004.4271 18150000[\psfig, \thetheorem, \rTo, \rdTo, Align, \dTo, \diagramstyle, {diagram}]; 1 missing file[geompsfi-pdf.sty].
47987 2013-04-09 10:21:37 /1004/1004.4262 5010000[\cancel].
47988 2013-04-09 10:21:21 /1004/1004.4223 23160000[\theappendix]; 1 missing file[sidecap.sty].
47989 2013-04-09 10:21:19 /1004/1004.4268 140000[{IEEEkeywords}, \IEEEauthorblockA, \IEEEauthorblockN, \IEEEpeerreviewmaketitle]; 1 missing file[IEEEtran.cls].
47990 2013-04-09 10:20:54 /1004/1004.4255 910000[\theparentequation].
47991 2013-04-09 10:20:23 /1004/1004.4200 26140000[Align, \diagramstyle, \psfrag, \rdTo, \ruTo, \rTo, {diagram}].
47992 2013-04-09 10:20:17 /1004/1004.4247 3620000[\@end@institute]; 1 missing file[type1cm.sty].
47993 2013-04-09 10:20:16 /1004/1004.4195 15550000[\UseAllTwocells, \xyoption, \LaTeXdiagrams, \CompileMatrices]; 1 missing file[xy.sty].
47994 2013-04-09 10:19:57 /1004/1004.4233 2610000[\cortext].
47995 2013-04-09 10:19:47 /1004/1004.4226 15290000[\field, \degreeyear, \degreemonth, \DiamondSolid, \startarabicpagination, \thechapter, \ssp, \department, {citations}, \copyrightpage, {acknowledgments}, \advisor, \FiveStar, \dedication, \CircleSolid, \hsp, \dsp, \@currentID, \degree]; 1 missing file[hu
47996 2013-04-09 10:19:34 /1004/1004.4211 19690000[\udk, \inst, \nazva, \nazvacol, \avtorcol, \adr, \anot, \avtor, \maketitl].
47997 2013-04-09 10:19:34 /1004/1004.4239 910000[\theappendix].
47998 2013-04-09 10:19:25 /1004/1004.4222 3060000[{IEEEkeywords}, \IEEEauthorblockN, \makesavenoteenv, \appendices]; 3 missing files[stfloats.sty, footnote.sty, IEEEtran.cls].
47999 2013-04-09 10:19:17 /1004/1004.4188 128130000[\thesthm, \xymatrix, \xy, \endxy, Align, \setborder, \border, \Square, \ar]; 3 missing files[mathcomp.sty, xy.sty, border.tex].
48000 2013-04-09 10:19:14 /1004/1004.4210 3050000[Align, \xymatrix, \ar]; 1 missing file[xy.sty].
<<< >>>

[0] [200] [400] [600] [800] [1000] [1200] [1400] [1600] [1800] [2000] [2200] [2400] [2600] [2800] [3000] [3200] [3400] [3600] [3800] [4000] [4200] [4400] [4600] [4800] [5000] [5200] [5400] [5600] [5800] [6000] [6200] [6400] [6600] [6800] [7000] [7200] [7400] [7600] [7800] [8000] [8200] [8400] [8600] [8800] [9000] [9200] [9400] [9600] [9800] [10000] [10200] [10400] [10600] [10800] [11000] [11200] [11400] [11600] [11800] [12000] [12200] [12400] [12600] [12800] [13000] [13200] [13400] [13600] [13800] [14000] [14200] [14400] [14600] [14800] [15000] [15200] [15400] [15600] [15800] [16000] [16200] [16400] [16600] [16800] [17000] [17200] [17400] [17600] [17800] [18000] [18200] [18400] [18600] [18800] [19000] [19200] [19400] [19600] [19800] [20000] [20200] [20400] [20600] [20800] [21000] [21200] [21400] [21600] [21800] [22000] [22200] [22400] [22600] [22800] [23000] [23200] [23400] [23600] [23800] [24000] [24200] [24400] [24600] [24800] [25000] [25200] [25400] [25600] [25800] [26000] [26200] [26400] [26600] [26800] [27000] [27200] [27400] [27600] [27800] [28000] [28200] [28400] [28600] [28800] [29000] [29200] [29400] [29600] [29800] [30000] [30200] [30400] [30600] [30800] [31000] [31200] [31400] [31600] [31800] [32000] [32200] [32400] [32600] [32800] [33000] [33200] [33400] [33600] [33800] [34000] [34200] [34400] [34600] [34800] [35000] [35200] [35400] [35600] [35800] [36000] [36200] [36400] [36600] [36800] [37000] [37200] [37400] [37600] [37800] [38000] [38200] [38400] [38600] [38800] [39000] [39200] [39400] [39600] [39800] [40000] [40200] [40400] [40600] [40800] [41000] [41200] [41400] [41600] [41800] [42000] [42200] [42400] [42600] [42800] [43000] [43200] [43400] [43600] [43800] [44000] [44200] [44400] [44600] [44800] [45000] [45200] [45400] [45600] [45800] [46000] [46200] [46400] [46600] [46800] [47000] [47200] [47400] [47600] [47800] [48000] [48200] [48400] [48600] [48800] [49000] [49200] [49400] [49600] [49800] [50000] [50200] [50400] [50600] [50800] [51000] [51200] [51400] [51600] [51800] [52000] [52200] [52400] [52600] [52800] [53000] [53200] [53400] [53600] [53800] [54000] [54200] [54400] [54600] [54800] [55000] [55200] [55400] [55600] [55800] [56000] [56200] [56400] [56600] [56800] [57000] [57200] [57400] [57600] [57800] [58000] [58200] [58400] [58600] [58800] [59000] [59200] [59400] [59600] [59800] [60000] [60200] [60400] [60600] [60800] [61000] [61200] [61400] [61600] [61800] [62000] [62200] [62400] [62600] [62800] [63000] [63200] [63400] [63600] [63800] [64000] [64200] [64400] [64600] [64800] [65000] [65200] [65400] [65600] [65800] [66000] [66200] [66400] [66600] [66800] [67000] [67200] [67400] [67600] [67800] [68000] [68200] [68400] [68600] [68800] [69000] [69200] [69400] [69600] [69800] [70000] [70200] [70400] [70600] [70800] [71000] [71200] [71400] [71600] [71800] [72000] [72200] [72400] [72600] [72800] [73000] [73200] [73400] [73600] [73800] [74000] [74200] [74400] [74600] [74800] [75000] [75200] [75400] [75600] [75800] [76000] [76200] [76400] [76600] [76800] [77000] [77200] [77400] [77600] [77800] [78000] [78200] [78400] [78600] [78800] [79000] [79200] [79400] [79600] [79800] [80000] [80200] [80400] [80600] [80800] [81000] [81200] [81400] [81600] [81800] [82000] [82200] [82400] [82600] [82800] [83000] [83200] [83400] [83600] [83800] [84000] [84200] [84400] [84600] [84800] [85000] [85200] [85400] [85600] [85800] [86000] [86200] [86400] [86600] [86800] [87000] [87200] [87400] [87600] [87800] [88000] [88200] [88400] [88600] [88800] [89000] [89200] [89400] [89600] [89800] [90000] [90200] [90400] [90600] [90800] [91000] [91200] [91400] [91600] [91800] [92000] [92200] [92400] [92600] [92800] [93000] [93200] [93400] [93600] [93800] [94000] [94200] [94400] [94600] [94800] [95000] [95200] [95400] [95600] [95800] [96000] [96200] [96400] [96600] [96800] [97000] [97200] [97400] [97600] [97800] [98000] [98200] [98400] [98600] [98800] [99000] [99200] [99400] [99600] [99800] [100000] [100200] [100400] [100600] [100800] [101000] [101200] [101400] [101600] [101800] [102000] [102200] [102400] [102600] [102800] [103000] [103200] [103400] [103600] [103800] [104000] [104200] [104400] [104600] [104800] [105000] [105200] [105400] [105600] [105800] [106000] [106200] [106400] [106600] [106800] [107000] [107200] [107400] [107600] [107800] [108000] [108200] [108400] [108600] [108800] [109000] [109200] [109400] [109600] [109800] [110000] [110200] [110400] [110600] [110800] [111000] [111200] [111400] [111600] [111800] [112000] [112200] [112400] [112600] [112800] [113000] [113200] [113400] [113600] [113800] [114000] [114200] [114400] [114600] [114800] [115000] [115200] [115400] [115600] [115800] [116000] [116200] [116400] [116600] [116800] [117000] [117200] [117400] [117600] [117800] [118000] [118200] [118400] [118600] [118800] [119000] [119200] [119400] [119600] [119800] [120000] [120200] [120400] [120600] [120800] [121000] [121200] [121400] [121600] [121800] [122000] [122200] [122400] [122600] [122800] [123000] [123200] [123400] [123600] [123800] [124000] [124200] [124400] [124600] [124800] [125000] [125200] [125400] [125600] [125800] [126000] [126200] [126400] [126600] [126800] [127000] [127200] [127400] [127600] [127800] [128000] [128200] [128400] [128600] [128800] [129000] [129200] [129400] [129600] [129800] [130000] [130200] [130400] [130600] [130800] [131000] [131200] [131400] [131600] [131800] [132000] [132200] [132400] [132600] [132800] [133000] [133200] [133400] [133600] [133800] [134000] [134200] [134400] [134600] [134800] [135000] [135200] [135400] [135600] [135800] [136000] [136200] [136400] [136600] [136800] [137000] [137200] [137400] [137600] [137800] [138000] [138200] [138400] [138600] [138800] [139000] [139200] [139400] [139600] [139800] [140000] [140200] [140400] [140600] [140800] [141000] [141200] [141400] [141600] [141800] [142000] [142200] [142400] [142600] [142800] [143000] [143200] [143400] [143600] [143800] [144000] [144200] [144400] [144600] [144800] [145000] [145200] [145400] [145600] [145800] [146000] [146200] [146400] [146600] [146800] [147000] [147200] [147400] [147600] [147800] [148000] [148200] [148400] [148600] [148800] [149000] [149200] [149400] [149600] [149800] [150000] [150200] [150400] [150600] [150800] [151000] [151200] [151400] [151600] [151800] [152000] [152200] [152400] [152600] [152800] [153000] [153200] [153400] [153600] [153800] [154000] [154200] [154400] [154600] [154800] [155000] [155200] [155400] [155600] [155800] [156000] [156200] [156400] [156600] [156800] [157000] [157200] [157400] [157600] [157800] [158000] [158200] [158400] [158600] [158800] [159000] [159200] [159400] [159600] [159800] [160000] [160200] [160400] [160600] [160800] [161000] [161200] [161400] [161600] [161800] [162000] [162200] [162400] [162600] [162800] [163000] [163200] [163400] [163600] [163800] [164000] [164200] [164400] [164600]
 
  The service has been written by
Heinrich Stamerjohanns